Auburn, Nebraska
Current Conditions -  °F | °C
As of 1:35 AM on Friday 19 Dec 2014 (Local Time) from KAFK Reporting Station
Haze Haze  
Wind Chill: 29°   Ceiling: 500
Heat Index: 29°   Visibility: 4mi
Dew Point: 29°   Wind: 3mph
Humidity: 100%   Direction: 200°SSW
Pressure: 30.23"   Gusts: NA
Location:  40.39°N, 95.84°W
Report Text: KAFK 190735Z AUTO 20003KT 4SM BR OVC005 M01/M01 A3023 RMK AO2 T10151015
Loading
Personal Weather Stations






























Interactive Weather Map New forecast layout! Learn more

10-Day Weather Forecast

Advertisements
Track Severe Weather on mobile